TimeMDT,TemperatureF,Dew PointF,Humidity,Sea Level PressureIn,VisibilityMPH,Wind Direction,Wind SpeedMPH,Gust SpeedMPH,PrecipitationIn,Events,Conditions,WindDirDegrees,DateUTC
12:53 AM,46.9,23.0,39,29.56,10.0,NW,5.8,-,N/A,,Clear,320,2012-10-21 06:53:00
1:53 AM,42.1,25.0,51,29.59,10.0,WNW,5.8,-,N/A,,Clear,300,2012-10-21 07:53:00
2:53 AM,41.0,25.0,53,29.62,10.0,NNW,10.4,-,N/A,,Clear,330,2012-10-21 08:53:00
3:53 AM,46.9,33.1,59,29.63,10.0,North,8.1,-,N/A,,Clear,10,2012-10-21 09:53:00
4:53 AM,42.1,33.1,70,29.68,10.0,North,6.9,-,N/A,,Clear,350,2012-10-21 10:53:00
5:53 AM,43.0,35.1,74,29.72,10.0,NNW,9.2,-,N/A,,Clear,330,2012-10-21 11:53:00
6:53 AM,39.9,35.1,83,29.79,10.0,NW,4.6,-,N/A,,Clear,310,2012-10-21 12:53:00
7:53 AM,43.0,39.0,86,29.81,10.0,North,13.8,-,N/A,,Clear,350,2012-10-21 13:53:00
8:53 AM,46.0,39.9,79,29.82,10.0,North,19.6,24.2,N/A,,Clear,10,2012-10-21 14:53:00
9:16 AM,46.4,39.2,76,29.88,10.0,NNE,15.0,-,N/A,,Mostly Cloudy,20,2012-10-21 15:16:00
9:53 AM,48.9,41.0,74,29.82,10.0,North,15.0,26.5,N/A,,Mostly Cloudy,360,2012-10-21 15:53:00
10:23 AM,51.8,39.2,62,29.89,10.0,North,18.4,23.0,N/A,,Mostly Cloudy,10,2012-10-21 16:23:00
10:51 AM,53.6,41.0,62,29.89,10.0,NNE,17.3,24.2,N/A,,Scattered Clouds,30,2012-10-21 16:51:00
10:53 AM,54.0,41.0,62,29.83,10.0,NNE,18.4,24.2,N/A,,Scattered Clouds,30,2012-10-21 16:53:00
11:53 AM,55.9,39.9,55,29.86,10.0,NNE,11.5,21.9,N/A,,Clear,20,2012-10-21 17:53:00
12:53 PM,59.0,39.0,48,29.82,10.0,NNE,13.8,-,N/A,,Clear,30,2012-10-21 18:53:00
1:53 PM,61.0,37.9,42,29.81,10.0,ENE,13.8,-,N/A,,Clear,70,2012-10-21 19:53:00
2:53 PM,63.0,37.9,40,29.80,10.0,NE,13.8,20.7,N/A,,Clear,50,2012-10-21 20:53:00
3:53 PM,63.0,37.0,38,29.78,10.0,ENE,17.3,21.9,N/A,,Clear,70,2012-10-21 21:53:00
4:53 PM,61.0,37.0,41,29.81,10.0,ENE,16.1,-,N/A,,Clear,60,2012-10-21 22:53:00
5:53 PM,55.9,37.0,49,29.84,10.0,ENE,10.4,-,N/A,,Clear,60,2012-10-21 23:53:00
6:53 PM,46.0,35.1,66,29.90,10.0,NNE,9.2,-,N/A,,Clear,20,2012-10-22 00:53:00
7:53 PM,45.0,37.0,74,29.92,10.0,NNE,8.1,-,N/A,,Clear,20,2012-10-22 01:53:00
8:53 PM,41.0,35.1,79,29.94,10.0,NNE,6.9,-,N/A,,Clear,20,2012-10-22 02:53:00
9:53 PM,39.0,34.0,82,29.94,10.0,NNE,5.8,-,N/A,,Clear,20,2012-10-22 03:53:00
10:53 PM,37.0,34.0,89,29.95,10.0,North,6.9,-,N/A,,Clear,10,2012-10-22 04:53:00
11:22 PM,39.2,35.6,87,29.96,10.0,North,8.1,-,N/A,,Mostly Cloudy,10,2012-10-22 05:22:00
11:53 PM,42.1,37.9,85,29.93,10.0,NNE,9.2,-,N/A,,Overcast,30,2012-10-22 05:53:00